Time;durP1;ratioP1;P1;durP2;ratioP2;P2;SDS_P1;SDS_P2;PMS_P1;PMS_P2;Temp;Humidity;BMP_temperature;BMP_pressure;BME280_temperature;BME280_humidity;BME280_pressure;Samples;Min_cycle;Max_cycle;Signal;HPM_P1;HPM_P2
2023/04/10 00:00:52;;;;;;;2.20;0.50;;;18.00;94.60;;;;;;5128670;27;20194;-76
2023/04/10 00:03:23;;;;;;;1.58;0.70;;;18.00;95.30;;;;;;5131689;27;20580;-75
2023/04/10 00:06:00;;;;;;;1.33;0.63;;;18.00;95.40;;;;;;5132136;27;20198;-75
2023/04/10 00:08:31;;;;;;;2.60;0.70;;;18.10;95.20;;;;;;5129685;27;20217;-75
2023/04/10 00:11:02;;;;;;;1.38;0.60;;;18.20;94.00;;;;;;5126585;27;20225;-75
2023/04/10 00:13:33;;;;;;;1.45;0.50;;;18.30;94.20;;;;;;5133381;27;20202;-75
2023/04/10 00:16:05;;;;;;;1.73;0.50;;;18.30;92.10;;;;;;5128791;27;20194;-76
2023/04/10 00:18:36;;;;;;;0.82;0.50;;;18.30;92.50;;;;;;5131259;27;20220;-76
2023/04/10 00:21:09;;;;;;;1.75;0.60;;;18.40;92.00;;;;;;5122430;27;20565;-75
2023/04/10 00:23:43;;;;;;;0.70;0.45;;;18.40;91.20;;;;;;5131298;27;20627;-74
2023/04/10 00:26:14;;;;;;;2.05;0.55;;;18.30;91.00;;;;;;5132998;27;20198;-75
2023/04/10 00:28:45;;;;;;;1.73;0.43;;;18.40;91.90;;;;;;5132920;27;20234;-75
2023/04/10 00:31:16;;;;;;;1.38;0.47;;;18.60;91.10;;;;;;5132072;27;20194;-74
2023/04/10 00:33:47;;;;;;;1.63;0.70;;;18.50;90.10;;;;;;5118717;27;20201;-75
2023/04/10 00:36:21;;;;;;;1.00;0.45;;;18.50;89.90;;;;;;5132086;27;20204;-75
2023/04/10 00:38:52;;;;;;;1.38;0.57;;;18.50;88.30;;;;;;5133136;27;20206;-76
2023/04/10 00:41:23;;;;;;;0.93;0.40;;;18.60;89.40;;;;;;5132687;27;20202;-76
2023/04/10 00:43:59;;;;;;;0.73;0.40;;;18.50;88.00;;;;;;5126769;27;20222;-75
2023/04/10 00:46:30;;;;;;;1.05;0.40;;;18.60;87.50;;;;;;5132150;27;20203;-75
2023/04/10 00:49:02;;;;;;;0.95;0.40;;;18.60;86.90;;;;;;5125450;27;20190;-76
2023/04/10 00:51:35;;;;;;;0.75;0.35;;;18.70;85.30;;;;;;5125482;27;20313;-75
2023/04/10 00:54:10;;;;;;;1.83;0.40;;;18.80;87.30;;;;;;5138616;27;20205;-76
2023/04/10 00:56:42;;;;;;;1.63;0.68;;;19.00;88.00;;;;;;5139367;27;20247;-75
2023/04/10 00:59:13;;;;;;;1.25;0.50;;;19.10;83.60;;;;;;5145244;27;20208;-75
2023/04/10 01:01:44;;;;;;;1.90;0.57;;;19.00;81.60;;;;;;5148558;27;20198;-76
2023/04/10 01:04:16;;;;;;;0.77;0.35;;;19.10;83.70;;;;;;5147434;27;20215;-75
2023/04/10 01:07:00;;;;;;;1.05;0.30;;;19.10;85.00;;;;;;5135406;27;20270;-75
2023/04/10 01:09:40;;;;;;;0.75;0.40;;;19.20;84.40;;;;;;5116060;27;20345;-75
2023/04/10 01:12:27;;;;;;;0.93;0.43;;;19.40;81.80;;;;;;5128942;27;20605;-75
2023/04/10 01:15:07;;;;;;;0.80;0.60;;;19.10;81.60;;;;;;5132024;27;20625;-75
2023/04/10 01:17:48;;;;;;;0.60;0.32;;;19.20;82.40;;;;;;5131719;27;20205;-75
2023/04/10 01:20:24;;;;;;;0.70;0.40;;;19.20;81.60;;;;;;5124850;27;20205;-75
2023/04/10 01:23:23;;;;;;;0.95;0.50;;;19.30;82.70;;;;;;5125297;27;20229;-76
2023/04/10 01:26:02;;;;;;;1.02;0.50;;;19.50;80.20;;;;;;5128915;27;20190;-76
2023/04/10 01:29:02;;;;;;;0.52;0.35;;;19.50;79.60;;;;;;5132032;27;20200;-75
2023/04/10 01:31:40;;;;;;;0.52;0.30;;;19.50;76.80;;;;;;5109027;27;20197;-75
2023/04/10 01:34:16;;;;;;;0.80;0.40;;;19.50;78.10;;;;;;5122441;27;20190;-76
2023/04/10 01:36:53;;;;;;;1.10;0.35;;;19.50;77.60;;;;;;5131720;27;20329;-75
2023/04/10 01:39:27;;;;;;;1.45;0.47;;;19.50;74.40;;;;;;5126814;27;20198;-76
2023/04/10 01:42:00;;;;;;;1.50;0.50;;;19.30;74.20;;;;;;5121443;27;20204;-75
2023/04/10 01:44:34;;;;;;;0.43;0.38;;;19.50;75.20;;;;;;5130890;27;20233;-75
2023/04/10 01:47:07;;;;;;;2.60;0.50;;;19.50;75.60;;;;;;5125508;27;20641;-76
2023/04/10 01:49:43;;;;;;;0.95;0.40;;;19.80;77.20;;;;;;5130873;27;20193;-76
2023/04/10 01:52:15;;;;;;;0.60;0.47;;;20.10;76.70;;;;;;5131326;27;20242;-75
2023/04/10 01:54:47;;;;;;;1.08;0.40;;;20.30;74.20;;;;;;5129533;27;20229;-76
2023/04/10 01:57:19;;;;;;;0.20;0.20;;;20.40;72.30;;;;;;5125574;27;20194;-76
2023/04/10 01:59:52;;;;;;;1.98;0.45;;;20.20;71.30;;;;;;5117735;27;20190;-75
2023/04/10 02:02:24;;;;;;;1.65;0.55;;;20.20;72.20;;;;;;5116419;27;20293;-75
2023/04/10 02:04:55;;;;;;;0.95;0.40;;;20.30;69.60;;;;;;5103843;27;20207;-75
2023/04/10 02:07:38;;;;;;;0.93;0.52;;;20.40;70.90;;;;;;5104943;27;20723;-75
2023/04/10 02:10:14;;;;;;;1.08;0.50;;;20.50;69.60;;;;;;5103318;27;20704;-78
2023/04/10 02:12:52;;;;;;;0.90;0.40;;;20.70;69.80;;;;;;5103923;27;20204;-75
2023/04/10 02:15:27;;;;;;;0.50;0.20;;;20.80;68.30;;;;;;5101693;27;20230;-76
2023/04/10 02:18:00;;;;;;;2.30;0.50;;;20.80;67.00;;;;;;5104138;27;20235;-76
2023/04/10 02:20:32;;;;;;;1.65;0.47;;;20.80;67.30;;;;;;5102835;27;20328;-77
2023/04/10 02:23:04;;;;;;;0.60;0.60;;;20.70;63.70;;;;;;5108678;27;20226;-77
2023/04/10 02:25:35;;;;;;;1.17;0.50;;;20.60;64.10;;;;;;5105289;27;20301;-76
2023/04/10 02:28:08;;;;;;;0.35;0.20;;;20.70;63.50;;;;;;5102164;27;20197;-76
2023/04/10 02:30:41;;;;;;;0.47;0.30;;;20.70;62.90;;;;;;5111888;27;20197;-76
2023/04/10 02:33:12;;;;;;;0.80;0.30;;;20.80;64.50;;;;;;5113519;27;20213;-76
2023/04/10 02:35:43;;;;;;;0.88;0.60;;;20.90;64.70;;;;;;5102249;28;20229;-75
2023/04/10 02:38:14;;;;;;;1.13;0.70;;;20.90;64.20;;;;;;5109691;27;20627;-75
2023/04/10 02:40:45;;;;;;;0.73;0.40;;;21.00;65.70;;;;;;5103266;27;20285;-74
2023/04/10 02:43:17;;;;;;;1.77;0.98;;;21.10;63.90;;;;;;5103047;28;20703;-75
2023/04/10 02:45:50;;;;;;;1.02;0.70;;;21.00;61.70;;;;;;5104291;28;20224;-76
2023/04/10 02:48:21;;;;;;;0.73;0.43;;;20.80;62.80;;;;;;5103509;28;20213;-77
2023/04/10 02:50:57;;;;;;;1.35;0.60;;;20.70;62.60;;;;;;5103398;28;20206;-77
2023/04/10 02:53:28;;;;;;;1.17;0.50;;;20.90;62.50;;;;;;5109138;27;20197;-77
2023/04/10 02:55:59;;;;;;;0.50;0.30;;;21.10;61.60;;;;;;5101094;27;20556;-76
2023/04/10 02:58:31;;;;;;;2.28;0.75;;;21.20;60.70;;;;;;5107684;27;20850;-78
2023/04/10 03:01:06;;;;;;;1.30;0.50;;;21.40;60.50;;;;;;5099528;27;20202;-76
2023/04/10 03:03:37;;;;;;;2.25;1.27;;;21.40;60.10;;;;;;5101164;27;20208;-76
2023/04/10 03:06:09;;;;;;;1.98;1.65;;;21.30;58.80;;;;;;5100725;27;20195;-78
2023/04/10 03:08:40;;;;;;;1.80;1.13;;;21.20;59.00;;;;;;5097052;27;20213;-78
2023/04/10 03:11:11;;;;;;;1.15;0.40;;;20.90;59.20;;;;;;5095761;27;20198;-78
2023/04/10 03:13:43;;;;;;;1.08;0.40;;;20.80;60.70;;;;;;5097165;27;20764;-77
2023/04/10 03:16:16;;;;;;;0.40;0.30;;;20.90;60.80;;;;;;5098093;27;20225;-78
2023/04/10 03:18:47;;;;;;;1.08;0.28;;;20.80;58.50;;;;;;5095342;27;20221;-78
2023/04/10 03:21:18;;;;;;;0.95;0.40;;;20.80;58.00;;;;;;5099884;27;20198;-78
2023/04/10 03:23:49;;;;;;;1.95;1.00;;;20.90;59.70;;;;;;5100153;27;20244;-78
2023/04/10 03:26:22;;;;;;;1.50;1.00;;;21.00;57.60;;;;;;5097763;27;20204;-78
2023/04/10 03:28:53;;;;;;;0.70;0.40;;;21.40;58.50;;;;;;5103432;27;20194;-78
2023/04/10 03:31:26;;;;;;;1.98;1.77;;;21.70;58.00;;;;;;5100536;27;20221;-78
2023/04/10 03:33:58;;;;;;;1.08;0.90;;;21.90;56.40;;;;;;5100801;27;20224;-79
2023/04/10 03:36:29;;;;;;;0.95;0.50;;;21.70;56.40;;;;;;5104473;27;20233;-78
2023/04/10 03:39:00;;;;;;;1.15;0.50;;;21.60;55.00;;;;;;5102499;27;20306;-78
2023/04/10 03:41:32;;;;;;;0.80;0.60;;;21.70;55.80;;;;;;5104989;27;20194;-78
2023/04/10 03:44:03;;;;;;;1.20;0.47;;;21.70;54.70;;;;;;5103278;27;20294;-77
2023/04/10 03:46:36;;;;;;;0.70;0.50;;;21.40;55.30;;;;;;5103998;27;20206;-77
2023/04/10 03:49:07;;;;;;;1.63;0.60;;;21.50;55.70;;;;;;5102303;27;20216;-77
2023/04/10 03:51:38;;;;;;;1.10;0.60;;;21.60;56.80;;;;;;5110199;27;20195;-77
2023/04/10 03:54:09;;;;;;;1.90;1.50;;;21.60;54.30;;;;;;5104151;27;20194;-78
2023/04/10 03:56:40;;;;;;;0.52;0.32;;;21.40;53.50;;;;;;5101650;27;20236;-78
2023/04/10 03:59:11;;;;;;;0.50;0.30;;;21.40;54.20;;;;;;5107238;27;20202;-78
2023/04/10 04:01:45;;;;;;;2.45;0.88;;;21.50;55.30;;;;;;5101716;27;20208;-77
2023/04/10 04:04:16;;;;;;;2.78;0.80;;;21.60;55.60;;;;;;5101410;27;20194;-77
2023/04/10 04:06:47;;;;;;;0.85;0.40;;;21.60;55.40;;;;;;5099745;27;20233;-78
2023/04/10 04:09:18;;;;;;;0.35;0.20;;;21.60;56.20;;;;;;5099755;27;20370;-77
2023/04/10 04:11:50;;;;;;;2.08;0.70;;;21.60;55.80;;;;;;5102315;27;20201;-77
2023/04/10 04:14:21;;;;;;;2.15;0.90;;;21.70;57.80;;;;;;5102318;27;20201;-78
2023/04/10 04:16:54;;;;;;;1.13;0.52;;;21.80;59.60;;;;;;5101371;27;20240;-78
2023/04/10 04:19:25;;;;;;;1.58;0.50;;;21.80;54.70;;;;;;5098336;27;20362;-79
2023/04/10 04:21:59;;;;;;;1.13;0.50;;;21.80;57.90;;;;;;5095997;27;20659;-77
2023/04/10 04:24:31;;;;;;;1.00;0.60;;;21.70;60.70;;;;;;5096915;27;21725;-77
2023/04/10 04:27:02;;;;;;;1.15;0.50;;;21.70;62.30;;;;;;5099870;27;20202;-78
2023/04/10 04:29:33;;;;;;;2.85;1.20;;;21.70;63.90;;;;;;5099529;27;20197;-78
2023/04/10 04:32:06;;;;;;;1.40;0.80;;;21.70;65.20;;;;;;5097674;27;20203;-77
2023/04/10 04:34:38;;;;;;;4.07;1.58;;;21.80;64.60;;;;;;5100181;27;20195;-77
2023/04/10 04:37:09;;;;;;;2.15;0.60;;;21.70;65.40;;;;;;5097604;27;20226;-77
2023/04/10 04:39:40;;;;;;;1.58;0.52;;;21.70;65.80;;;;;;5098832;27;20551;-77
2023/04/10 04:42:11;;;;;;;2.17;0.70;;;21.60;65.90;;;;;;5098554;27;20251;-77
2023/04/10 04:44:42;;;;;;;2.78;0.93;;;21.50;67.50;;;;;;5095761;27;20220;-77
2023/04/10 04:47:15;;;;;;;1.50;0.90;;;21.40;69.10;;;;;;5097390;27;20198;-77
2023/04/10 04:49:46;;;;;;;2.45;1.10;;;21.40;69.90;;;;;;5099029;27;20214;-77
2023/04/10 04:52:17;;;;;;;2.30;0.73;;;21.40;70.00;;;;;;5104545;27;20197;-77
2023/04/10 04:54:48;;;;;;;3.80;0.63;;;21.50;69.10;;;;;;5094683;27;22740;-77
2023/04/10 04:57:19;;;;;;;1.08;0.60;;;21.50;68.50;;;;;;5103141;27;20222;-78
2023/04/10 04:59:51;;;;;;;1.73;0.63;;;21.50;69.10;;;;;;5098536;27;20555;-78
2023/04/10 05:02:24;;;;;;;2.15;1.00;;;21.40;67.70;;;;;;5098947;27;20845;-78
2023/04/10 05:04:55;;;;;;;3.05;0.80;;;21.40;69.90;;;;;;5099456;27;20198;-78
2023/04/10 05:07:26;;;;;;;1.05;0.60;;;21.30;69.80;;;;;;5110754;27;20225;-77
2023/04/10 05:09:58;;;;;;;2.28;1.20;;;21.20;70.00;;;;;;5126386;27;20198;-78
2023/04/10 05:12:29;;;;;;;1.77;1.30;;;21.10;71.10;;;;;;5097415;27;20580;-76
2023/04/10 05:15:00;;;;;;;2.80;1.55;;;21.10;72.60;;;;;;5101949;27;20197;-78
2023/04/10 05:17:33;;;;;;;2.13;1.20;;;21.00;72.20;;;;;;5096534;27;20229;-78
2023/04/10 05:20:04;;;;;;;1.23;0.65;;;20.90;71.50;;;;;;5096567;27;20203;-79
2023/04/10 05:22:35;;;;;;;4.57;0.80;;;20.90;72.10;;;;;;5097034;27;20245;-77
2023/04/10 05:25:07;;;;;;;1.42;0.70;;;20.80;71.30;;;;;;5100042;27;20205;-77
2023/04/10 05:27:38;;;;;;;1.02;0.63;;;20.80;70.90;;;;;;5100468;27;20266;-77
2023/04/10 05:30:10;;;;;;;1.27;0.50;;;20.70;73.70;;;;;;5096420;27;20209;-78
2023/04/10 05:32:44;;;;;;;0.88;0.50;;;20.90;74.50;;;;;;5098365;27;20562;-77
2023/04/10 05:35:15;;;;;;;0.98;0.50;;;20.80;72.30;;;;;;5094793;27;21290;-77
2023/04/10 05:37:47;;;;;;;0.95;0.60;;;20.90;73.20;;;;;;5095144;27;20669;-78
2023/04/10 05:40:18;;;;;;;3.25;0.80;;;21.00;74.50;;;;;;5096903;27;20207;-78
2023/04/10 05:42:49;;;;;;;2.83;0.80;;;21.00;73.30;;;;;;5095560;27;20747;-78
2023/04/10 05:45:20;;;;;;;1.25;0.73;;;20.90;75.40;;;;;;5095387;27;20233;-77
2023/04/10 05:47:53;;;;;;;2.33;0.77;;;20.90;76.00;;;;;;5094796;27;20865;-77
2023/04/10 05:50:24;;;;;;;1.55;1.10;;;20.90;75.00;;;;;;5102272;27;20213;-78
2023/04/10 05:52:55;;;;;;;1.83;1.15;;;20.90;76.60;;;;;;5096951;27;20208;-78
2023/04/10 05:55:26;;;;;;;2.08;0.85;;;20.80;79.00;;;;;;5097723;27;20213;-78
2023/04/10 05:57:57;;;;;;;1.05;0.60;;;20.70;79.10;;;;;;5109839;27;20205;-78
2023/04/10 06:00:28;;;;;;;3.72;1.00;;;20.80;80.10;;;;;;5099708;27;20553;-78
2023/04/10 06:03:01;;;;;;;3.45;0.80;;;20.80;78.20;;;;;;5098014;27;20210;-78
2023/04/10 06:05:33;;;;;;;1.77;0.63;;;20.80;77.10;;;;;;5107733;27;20933;-78
2023/04/10 06:08:04;;;;;;;1.63;0.70;;;20.80;78.20;;;;;;5097293;27;20221;-78
2023/04/10 06:10:35;;;;;;;1.35;0.60;;;20.70;77.80;;;;;;5103096;27;20198;-80
2023/04/10 06:13:06;;;;;;;2.15;0.70;;;20.70;82.20;;;;;;5097992;27;20202;-79
2023/04/10 06:15:37;;;;;;;1.80;0.82;;;20.60;79.20;;;;;;5096051;27;20213;-79
2023/04/10 06:18:10;;;;;;;1.08;0.52;;;20.60;80.40;;;;;;5097082;27;20194;-80
2023/04/10 06:20:41;;;;;;;1.27;0.65;;;20.80;81.20;;;;;;5095907;27;20202;-80
2023/04/10 06:23:12;;;;;;;1.13;0.60;;;21.00;79.00;;;;;;5095843;27;20234;-80
2023/04/10 06:25:43;;;;;;;1.90;0.82;;;21.10;80.50;;;;;;5098236;27;20278;-79
2023/04/10 06:28:18;;;;;;;1.48;0.80;;;21.10;79.10;;;;;;5097085;27;20209;-80
2023/04/10 06:30:50;;;;;;;3.47;1.08;;;21.20;80.20;;;;;;5095871;27;20224;-79
2023/04/10 06:33:22;;;;;;;2.33;1.00;;;21.30;79.50;;;;;;5100945;27;20198;-80
2023/04/10 06:35:54;;;;;;;2.80;1.10;;;21.20;79.80;;;;;;5096336;28;20715;-80
2023/04/10 06:38:26;;;;;;;1.42;0.73;;;21.10;79.40;;;;;;5107293;27;20208;-80
2023/04/10 06:40:57;;;;;;;2.03;0.70;;;21.00;79.80;;;;;;5098384;27;20198;-79
2023/04/10 06:43:30;;;;;;;2.80;0.80;;;20.80;80.20;;;;;;5098210;27;20213;-79
2023/04/10 06:46:01;;;;;;;1.23;0.60;;;20.80;81.10;;;;;;5096079;28;20199;-79
2023/04/10 06:48:34;;;;;;;2.88;0.90;;;20.90;81.40;;;;;;5095568;28;20566;-79
2023/04/10 06:51:06;;;;;;;2.05;1.27;;;21.00;80.60;;;;;;5096654;28;20191;-79
2023/04/10 06:53:37;;;;;;;2.22;1.00;;;21.00;81.70;;;;;;5094034;27;20201;-79
2023/04/10 06:56:09;;;;;;;3.90;0.82;;;20.90;82.60;;;;;;5098468;27;20224;-78
2023/04/10 06:58:40;;;;;;;2.80;0.73;;;20.80;83.10;;;;;;5091319;28;20217;-80
2023/04/10 07:01:12;;;;;;;2.45;0.63;;;20.80;82.50;;;;;;5092740;28;20676;-79
2023/04/10 07:03:45;;;;;;;1.77;0.90;;;20.70;84.20;;;;;;5093102;28;20833;-80
2023/04/10 07:06:16;;;;;;;3.72;1.50;;;20.70;82.90;;;;;;5101138;28;20198;-79
2023/04/10 07:08:48;;;;;;;2.53;1.75;;;20.60;84.60;;;;;;5091290;28;20921;-80
2023/04/10 07:11:19;;;;;;;2.42;1.50;;;20.50;84.30;;;;;;5106190;27;20206;-79
2023/04/10 07:13:52;;;;;;;2.17;1.20;;;20.50;85.90;;;;;;5094484;28;20211;-79
2023/04/10 07:16:23;;;;;;;2.47;0.80;;;20.50;84.90;;;;;;5094405;27;20314;-79
2023/04/10 07:18:56;;;;;;;3.88;0.60;;;20.40;86.90;;;;;;5096050;28;20902;-79
2023/04/10 07:21:28;;;;;;;1.15;0.60;;;20.30;86.10;;;;;;5097096;27;20202;-81
2023/04/10 07:24:00;;;;;;;0.93;0.50;;;20.20;87.10;;;;;;5096347;27;20274;-78
2023/04/10 07:26:31;;;;;;;2.70;0.60;;;20.20;88.80;;;;;;5100092;27;20202;-79
2023/04/10 07:29:02;;;;;;;1.55;0.70;;;20.10;89.20;;;;;;5098637;28;20194;-78
2023/04/10 07:31:33;;;;;;;4.63;0.95;;;20.10;89.90;;;;;;5098215;27;20198;-78
2023/04/10 07:34:07;;;;;;;2.28;0.90;;;19.90;89.80;;;;;;5097920;27;20205;-77
2023/04/10 07:36:38;;;;;;;2.47;1.00;;;19.90;90.60;;;;;;5104307;27;20795;-77
2023/04/10 07:39:09;;;;;;;3.78;1.05;;;19.80;90.80;;;;;;5097505;28;20194;-77
2023/04/10 07:41:40;;;;;;;2.55;0.70;;;19.70;92.60;;;;;;5098693;27;20194;-78
2023/04/10 07:44:11;;;;;;;2.92;0.68;;;19.70;93.70;;;;;;5099976;27;20482;-77
2023/04/10 07:46:43;;;;;;;1.42;0.65;;;19.60;94.10;;;;;;5098316;27;20212;-78
2023/04/10 07:49:16;;;;;;;3.92;0.88;;;19.50;94.80;;;;;;5099233;27;20198;-78
2023/04/10 07:51:47;;;;;;;1.73;0.60;;;19.60;95.30;;;;;;5107830;27;20604;-78
2023/04/10 07:54:23;;;;;;;43.47;33.40;;;19.50;95.20;;;;;;5097686;27;20202;-78
2023/04/10 07:56:55;;;;;;;11.65;9.57;;;19.40;94.80;;;;;;5099055;27;20214;-77
2023/04/10 07:59:27;;;;;;;4.60;2.65;;;19.40;97.20;;;;;;5099979;27;20683;-78
2023/04/10 08:01:58;;;;;;;3.03;2.10;;;19.40;98.30;;;;;;5098323;27;20207;-78
2023/04/10 08:04:31;;;;;;;3.03;1.80;;;19.30;98.10;;;;;;5100263;27;20202;-77
2023/04/10 08:07:02;;;;;;;6.43;2.28;;;19.30;98.80;;;;;;5101910;27;20219;-77
2023/04/10 08:09:33;;;;;;;4.30;1.90;;;19.20;99.20;;;;;;5099253;27;20737;-77
2023/04/10 08:12:04;;;;;;;3.22;1.30;;;19.20;99.90;;;;;;5097930;27;20304;-79
2023/04/10 08:14:35;;;;;;;3.88;1.52;;;19.10;99.50;;;;;;5099346;27;20202;-77
2023/04/10 08:17:13;;;;;;;8.00;3.17;;;19.10;99.10;;;;;;5104844;27;21521;-77
2023/04/10 08:19:46;;;;;;;7.10;3.17;;;19.10;98.70;;;;;;5097769;27;20631;-77
2023/04/10 08:22:17;;;;;;;9.18;3.08;;;19.10;99.10;;;;;;5094918;27;20218;-77
2023/04/10 08:24:48;;;;;;;5.60;2.22;;;19.00;99.90;;;;;;5093768;27;20198;-77
2023/04/10 08:27:19;;;;;;;7.53;2.00;;;19.00;99.50;;;;;;5094873;27;20203;-78
2023/04/10 08:29:50;;;;;;;4.95;2.10;;;19.00;99.90;;;;;;5096234;27;20211;-77
2023/04/10 08:32:21;;;;;;;11.07;3.92;;;19.00;99.90;;;;;;5095337;27;20308;-77
2023/04/10 08:34:55;;;;;;;9.30;4.15;;;18.90;99.90;;;;;;5095609;27;20205;-77
2023/04/10 08:37:26;;;;;;;9.77;4.55;;;18.90;99.90;;;;;;5097325;27;20230;-78
2023/04/10 08:39:57;;;;;;;11.32;4.43;;;18.90;99.90;;;;;;5095985;27;20206;-78
2023/04/10 08:42:30;;;;;;;8.25;3.40;;;18.80;99.90;;;;;;5095464;27;20699;-77
2023/04/10 08:45:01;;;;;;;7.70;2.78;;;18.80;99.90;;;;;;5095084;27;20206;-78
2023/04/10 08:47:37;;;;;;;4.15;2.00;;;18.70;99.90;;;;;;5094091;27;20198;-78
2023/04/10 08:50:14;;;;;;;3.92;1.55;;;18.70;99.90;;;;;;5096839;27;20707;-77
2023/04/10 08:52:48;;;;;;;5.28;2.53;;;18.60;99.90;;;;;;5094449;27;20210;-77
2023/04/10 08:55:20;;;;;;;5.20;1.92;;;18.60;99.90;;;;;;5097435;27;20274;-77
2023/04/10 08:57:52;;;;;;;6.35;1.90;;;18.60;99.90;;;;;;5104884;27;20711;-77
2023/04/10 09:00:23;;;;;;;4.35;1.73;;;18.60;99.90;;;;;;5099333;27;20204;-77
2023/04/10 09:02:56;;;;;;;4.72;1.80;;;18.60;99.90;;;;;;5100233;27;20197;-77
2023/04/10 09:05:31;;;;;;;7.85;2.38;;;18.60;99.90;;;;;;5102068;27;20205;-77
2023/04/10 09:08:02;;;;;;;5.15;2.70;;;18.60;99.90;;;;;;5100798;27;20215;-79
2023/04/10 09:10:37;;;;;;;5.18;2.63;;;18.60;99.90;;;;;;5095595;27;22095;-78
2023/04/10 09:13:08;;;;;;;10.73;4.20;;;18.50;99.90;;;;;;5099660;27;20652;-77
2023/04/10 09:16:00;;;;;;;6.95;3.17;;;18.40;99.90;;;;;;5101055;27;20198;-77
2023/04/10 09:18:45;;;;;;;6.28;2.35;;;18.40;99.90;;;;;;5100856;27;20218;-76
2023/04/10 09:21:20;;;;;;;4.30;2.50;;;18.40;99.90;;;;;;5102922;27;20194;-77
2023/04/10 09:24:01;;;;;;;2.72;1.85;;;18.40;99.90;;;;;;5097993;27;20225;-75
2023/04/10 09:26:33;;;;;;;3.47;2.20;;;18.40;99.90;;;;;;5093352;27;20198;-76
2023/04/10 09:29:05;;;;;;;3.63;2.28;;;18.40;99.90;;;;;;5094315;27;21571;-77
2023/04/10 09:31:37;;;;;;;4.15;2.30;;;18.40;99.90;;;;;;5096689;27;20664;-76
2023/04/10 09:34:15;;;;;;;4.78;2.20;;;18.40;99.90;;;;;;5092440;27;20199;-77
2023/04/10 09:36:56;;;;;;;4.95;3.05;;;18.40;99.30;;;;;;5097323;27;20710;-76
2023/04/10 09:39:39;;;;;;;9.15;4.93;;;18.40;99.20;;;;;;5093810;27;20202;-78
2023/04/10 09:42:11;;;;;;;7.35;2.60;;;18.30;98.10;;;;;;5092392;27;20239;-77
2023/04/10 09:44:43;;;;;;;13.98;5.68;;;18.20;94.90;;;;;;5094669;27;20201;-77
2023/04/10 09:47:21;;;;;;;5.88;3.05;;;18.20;94.20;;;;;;5095886;27;20209;-76
2023/04/10 09:49:53;;;;;;;8.43;4.35;;;18.30;95.40;;;;;;5094743;27;20205;-78
2023/04/10 09:52:30;;;;;;;7.15;3.70;;;18.30;94.20;;;;;;5094523;27;20733;-77
2023/04/10 09:55:03;;;;;;;16.90;7.90;;;18.30;93.70;;;;;;5093426;27;20216;-77
2023/04/10 09:57:35;;;;;;;5.20;2.72;;;18.40;92.60;;;;;;5102433;27;20669;-77
2023/04/10 10:00:08;;;;;;;4.90;2.30;;;18.30;92.00;;;;;;5099306;27;20205;-77
2023/04/10 10:02:40;;;;;;;4.00;1.98;;;18.30;92.30;;;;;;5093623;27;20738;-76
2023/04/10 10:05:11;;;;;;;6.03;2.65;;;18.30;91.60;;;;;;5093473;27;20248;-76
2023/04/10 10:07:44;;;;;;;3.03;1.17;;;18.30;91.30;;;;;;5094052;27;20220;-76
2023/04/10 10:10:16;;;;;;;1.85;1.10;;;18.20;90.10;;;;;;5093560;27;20264;-77
2023/04/10 10:12:50;;;;;;;2.42;1.40;;;18.20;90.00;;;;;;5096654;27;20208;-76
2023/04/10 10:15:30;;;;;;;2.63;1.50;;;18.20;90.70;;;;;;5094402;27;20210;-77
2023/04/10 10:18:15;;;;;;;2.58;1.17;;;18.10;90.30;;;;;;5095022;27;20312;-77
2023/04/10 10:20:48;;;;;;;2.58;1.02;;;18.10;89.70;;;;;;5096116;27;21128;-78
2023/04/10 10:23:21;;;;;;;1.88;0.80;;;18.10;88.80;;;;;;5098873;27;20310;-77
2023/04/10 10:25:57;;;;;;;1.48;0.90;;;18.00;87.70;;;;;;5096564;27;20700;-76
2023/04/10 10:28:33;;;;;;;3.85;0.90;;;18.00;88.20;;;;;;5096243;27;20198;-77
2023/04/10 10:31:07;;;;;;;1.48;0.88;;;17.90;87.20;;;;;;5095199;27;20201;-77
2023/04/10 10:33:39;;;;;;;3.25;1.20;;;17.80;88.60;;;;;;5095063;27;21247;-77
2023/04/10 10:36:12;;;;;;;2.03;0.80;;;17.70;88.50;;;;;;5095101;27;20217;-77
2023/04/10 10:38:59;;;;;;;1.48;1.00;;;17.70;88.10;;;;;;5093006;28;20223;-75
2023/04/10 10:41:41;;;;;;;1.58;0.90;;;17.70;89.10;;;;;;5093536;28;20788;-77
2023/04/10 10:44:16;;;;;;;1.15;0.70;;;17.70;89.70;;;;;;5110908;27;20222;-77
2023/04/10 10:46:52;;;;;;;2.28;0.82;;;17.70;89.30;;;;;;5111488;28;20220;-77
2023/04/10 10:49:24;;;;;;;2.85;0.90;;;17.70;90.00;;;;;;5105336;28;20202;-77
2023/04/10 10:51:55;;;;;;;1.45;0.70;;;17.70;90.40;;;;;;5104516;28;20205;-77
2023/04/10 10:54:36;;;;;;;1.88;1.27;;;17.70;90.40;;;;;;5108178;27;20871;-76
2023/04/10 10:57:27;;;;;;;1.40;0.80;;;17.70;90.40;;;;;;5097916;27;22147;-76
2023/04/10 10:59:59;;;;;;;3.30;1.00;;;17.70;90.70;;;;;;5102858;28;20200;-76
2023/04/10 11:02:30;;;;;;;1.70;0.98;;;17.70;90.70;;;;;;5102162;27;20211;-77
2023/04/10 11:05:02;;;;;;;3.22;2.10;;;17.60;90.70;;;;;;5101614;28;21626;-77
2023/04/10 11:08:07;;;;;;;4.90;2.15;;;17.50;90.50;;;;;;5100622;28;20227;-77
2023/04/10 11:11:06;;;;;;;1.38;0.85;;;17.50;90.60;;;;;;5093189;27;20822;-77
2023/04/10 11:13:39;;;;;;;3.05;1.27;;;17.40;90.80;;;;;;5090604;28;20222;-77
2023/04/10 11:16:11;;;;;;;4.82;1.10;;;17.50;91.00;;;;;;5098171;27;20198;-77
2023/04/10 11:19:07;;;;;;;2.20;0.98;;;17.40;91.20;;;;;;5105337;27;20265;-76
2023/04/10 11:21:38;;;;;;;1.58;0.68;;;17.40;91.00;;;;;;5106212;27;20190;-80
2023/04/10 11:24:10;;;;;;;1.30;0.55;;;17.40;91.40;;;;;;5104634;27;20811;-77
2023/04/10 11:26:44;;;;;;;1.15;0.80;;;17.40;91.40;;;;;;5104987;27;20699;-78
2023/04/10 11:29:36;;;;;;;1.67;0.60;;;17.40;91.60;;;;;;5109535;27;20834;-77
2023/04/10 11:32:07;;;;;;;0.90;0.65;;;17.40;91.60;;;;;;5103385;27;20205;-79
2023/04/10 11:34:47;;;;;;;2.08;0.70;;;17.30;91.40;;;;;;5103058;27;20214;-77
2023/04/10 11:37:26;;;;;;;1.23;0.70;;;17.40;91.80;;;;;;5104044;27;20197;-78
2023/04/10 11:40:07;;;;;;;1.90;0.80;;;17.40;91.50;;;;;;5103125;27;20205;-78
2023/04/10 11:42:40;;;;;;;1.73;0.60;;;17.40;91.60;;;;;;5106154;27;20206;-78
2023/04/10 11:45:30;;;;;;;0.90;0.60;;;17.30;91.90;;;;;;5104673;27;20226;-78
2023/04/10 11:48:02;;;;;;;1.55;0.55;;;17.30;92.10;;;;;;5104869;27;20191;-77
2023/04/10 11:50:34;;;;;;;2.25;0.80;;;17.30;93.00;;;;;;5107354;27;20197;-78
2023/04/10 11:53:18;;;;;;;1.35;0.80;;;17.30;93.10;;;;;;5101933;27;20599;-77
2023/04/10 11:55:49;;;;;;;1.20;0.60;;;17.30;92.70;;;;;;5104507;27;20316;-77
2023/04/10 11:58:31;;;;;;;2.08;0.70;;;17.30;92.40;;;;;;5116373;27;20222;-78
2023/04/10 12:01:04;;;;;;;1.05;0.60;;;17.30;92.40;;;;;;5101133;27;20226;-76
2023/04/10 12:03:42;;;;;;;1.45;0.80;;;17.30;92.90;;;;;;5103459;27;20206;-77
2023/04/10 12:06:15;;;;;;;2.95;1.10;;;17.20;93.20;;;;;;5098535;27;20213;-77
2023/04/10 12:08:51;;;;;;;2.05;1.10;;;17.30;93.60;;;;;;5103491;27;20834;-77
2023/04/10 12:11:23;;;;;;;3.17;1.20;;;17.40;93.60;;;;;;5103143;27;21446;-78
2023/04/10 12:13:58;;;;;;;2.50;1.10;;;17.30;92.90;;;;;;5100362;27;21299;-78
2023/04/10 12:16:30;;;;;;;0.95;0.70;;;17.20;93.50;;;;;;5099662;27;20197;-77
2023/04/10 12:19:01;;;;;;;0.90;0.68;;;17.20;93.30;;;;;;5101136;27;20228;-78
2023/04/10 12:21:32;;;;;;;1.83;0.75;;;17.10;93.20;;;;;;5102948;27;20834;-77
2023/04/10 12:24:04;;;;;;;1.73;0.80;;;17.20;93.70;;;;;;5099213;27;20731;-78
2023/04/10 12:26:35;;;;;;;2.97;1.17;;;17.10;93.40;;;;;;5098518;27;20213;-77
2023/04/10 12:29:08;;;;;;;1.60;0.80;;;17.00;93.50;;;;;;5095260;27;20221;-77
2023/04/10 12:31:41;;;;;;;1.05;0.77;;;16.90;93.70;;;;;;5096882;27;20191;-76
2023/04/10 12:34:12;;;;;;;2.55;0.90;;;17.00;94.10;;;;;;5094694;27;20194;-78
2023/04/10 12:36:43;;;;;;;1.45;0.68;;;17.00;94.20;;;;;;5094707;27;20199;-77
2023/04/10 12:39:26;;;;;;;1.67;0.88;;;17.00;94.50;;;;;;5092421;27;20221;-77
2023/04/10 12:42:12;;;;;;;2.08;0.90;;;17.10;94.50;;;;;;5095910;27;20195;-77
2023/04/10 12:44:56;;;;;;;1.75;0.88;;;17.10;95.10;;;;;;5094552;27;21512;-77
2023/04/10 12:47:28;;;;;;;1.15;0.90;;;17.10;94.80;;;;;;5094139;27;20198;-77
2023/04/10 12:50:12;;;;;;;2.63;0.82;;;17.10;95.10;;;;;;5097894;27;20198;-77
2023/04/10 12:52:44;;;;;;;1.65;1.00;;;17.10;94.50;;;;;;5096486;27;20832;-78
2023/04/10 12:55:17;;;;;;;1.48;0.63;;;17.00;95.30;;;;;;5102022;27;20202;-77
2023/04/10 12:57:50;;;;;;;1.65;0.90;;;17.00;94.80;;;;;;5093782;27;20212;-78
2023/04/10 13:00:24;;;;;;;2.50;0.95;;;17.00;95.00;;;;;;5095087;27;20236;-77
2023/04/10 13:02:55;;;;;;;1.67;0.70;;;17.00;95.50;;;;;;5100157;27;20201;-77
2023/04/10 13:05:26;;;;;;;1.77;1.05;;;17.00;95.60;;;;;;5101234;27;20203;-77
2023/04/10 13:07:57;;;;;;;1.42;0.80;;;17.00;95.80;;;;;;5097201;27;20218;-77
2023/04/10 13:10:29;;;;;;;2.03;0.85;;;16.90;95.30;;;;;;5101476;27;20202;-77
2023/04/10 13:13:00;;;;;;;2.28;0.90;;;16.90;95.50;;;;;;5098540;27;20297;-77
2023/04/10 13:15:33;;;;;;;1.60;0.90;;;16.90;96.40;;;;;;5100662;27;20201;-77
2023/04/10 13:18:05;;;;;;;1.48;0.85;;;16.70;96.10;;;;;;5096839;27;20234;-78